Captainj.neofotistos — D5HE2 — position and weather

sailwx.info

Track history (hours):
 
Tides and Currents Weather Stations Pressure Air Temp Water Temp Dewpoint Dewpoint Depression Visibility Wind Speed Wind Dir Waves Ship Positions

Captainj.neofotistos

Last reported at 2018-Jun-24 07:27 UTC. Time now 2018-Jun-24 07:27 UTC.
Position N 27°06' W 014°42'.

Length 229 m; draft 8.2 m.

Type: Cargo ship. MMSI: 636016657.

Date/timePositionNaut miles runAvg speedWind from/ knotsBaromVisibWave heightAir tempDewpointWater temp
2018-Jun-24 07:27N 27°06' W 014°42'814.4
2018-Jun-24 06:55N 27°12' W 014°37'814.7
2018-Jun-24 06:21N 27°17' W 014°30'614.8
2018-Jun-24 05:58N 27°22' W 014°25'714.6
2018-Jun-24 05:29N 27°27' W 014°20'814.8
2018-Jun-24 04:56N 27°33' W 014°13'715.1
2018-Jun-24 04:30N 27°37' W 014°08'714.9
2018-Jun-24 04:00N 27°42' W 014°02'814.6
2018-Jun-24 03:27N 27°48' W 013°56'614.3
2018-Jun-24 03:00N 27°52' W 013°50'714.7
2018-Jun-24 02:30N 27°58' W 013°45'714.7
2018-Jun-24 02:00N 28°03' W 013°39'714.7
2018-Jun-24 01:30N 28°09' W 013°35'714.4
2018-Jun-24 01:00N 28°15' W 013°30'714.2
2018-Jun-24 00:29N 28°21' W 013°25'714.2
2018-Jun-24 00:00N 28°27' W 013°21'714.2
2018-Jun-23 23:30N 28°33' W 013°16'714.2
2018-Jun-23 22:59N 28°39' W 013°11'714.3
2018-Jun-23 22:30N 28°45' W 013°07'714.4
2018-Jun-23 21:59N 28°51' W 013°02'814.5
2018-Jun-23 21:27N 28°57' W 012°57'614.4
2018-Jun-23 21:00N 29°02' W 012°53'814.4
2018-Jun-23 20:29N 29°09' W 012°48'914.5
2018-Jun-23 19:50N 29°17' W 012°42'814.5
2018-Jun-23 19:18N 29°23' W 012°37'414.4
2018-Jun-23 18:59N 29°27' W 012°34'1314.5
2018-Jun-23 18:05N 29°37' W 012°25'214.6
2018-Jun-23 17:57N 29°39' W 012°24'914.5
2018-Jun-23 17:18N 29°47' W 012°18'414.3
2018-Jun-23 17:00N 29°50' W 012°15'  
2018-Jun-19 19:35N 36°32' W 000°50'212.5
2018-Jun-19 19:25N 36°33' W 000°47'512.6
2018-Jun-19 19:00N 36°34' W 000°41'7612.5
2018-Jun-19 12:56N 36°49' E 000°52'  
2018-Jun-15 15:06N 37°44' E 024°16'112.0
2018-Jun-15 14:59N 37°44' E 024°18'712.1
2018-Jun-15 14:26N 37°49' E 024°24'512.7
2018-Jun-15 14:01N 37°52' E 024°29'13012.9
2018-Jun-15 03:56N 39°48' E 025°45'614.6
2018-Jun-15 03:30N 39°53' E 025°48'9311.1
2018-Jun-14 19:09N 40°43' E 027°31'430.9
2018-Jun-14 19:00N 40°45' E 027°36'3768.1
2018-Jun-14 18:27N 40°51' E 028°25'1533.2
2018-Jun-14 18:00N 40°53' E 028°45'  
Track history (hours):
 
Tides and Currents Weather Stations Pressure Air Temp Water Temp Dewpoint Dewpoint Depression Visibility Wind Speed Wind Dir Waves Ship Positions

Captainj.neofotistos

Last reported at 2018-Jun-24 07:27 UTC. Time now 2018-Jun-24 07:27 UTC.
Position N 27°06' W 014°42'.

Length 229 m; draft 8.2 m.

Type: Cargo ship. MMSI: 636016657.

Date/timePositionNaut miles runAvg speedWind from/ knotsBaromVisibWave heightAir tempDewpointWater temp
2018-Jun-24 07:27N 27°06' W 014°42'814.4
2018-Jun-24 06:55N 27°12' W 014°37'814.7
2018-Jun-24 06:21N 27°17' W 014°30'614.8
2018-Jun-24 05:58N 27°22' W 014°25'714.6
2018-Jun-24 05:29N 27°27' W 014°20'814.8
2018-Jun-24 04:56N 27°33' W 014°13'715.1
2018-Jun-24 04:30N 27°37' W 014°08'714.9
2018-Jun-24 04:00N 27°42' W 014°02'814.6
2018-Jun-24 03:27N 27°48' W 013°56'614.3
2018-Jun-24 03:00N 27°52' W 013°50'714.7
2018-Jun-24 02:30N 27°58' W 013°45'714.7
2018-Jun-24 02:00N 28°03' W 013°39'714.7
2018-Jun-24 01:30N 28°09' W 013°35'714.4
2018-Jun-24 01:00N 28°15' W 013°30'714.2
2018-Jun-24 00:29N 28°21' W 013°25'714.2
2018-Jun-24 00:00N 28°27' W 013°21'714.2
2018-Jun-23 23:30N 28°33' W 013°16'714.2
2018-Jun-23 22:59N 28°39' W 013°11'714.3
2018-Jun-23 22:30N 28°45' W 013°07'714.4
2018-Jun-23 21:59N 28°51' W 013°02'814.5
2018-Jun-23 21:27N 28°57' W 012°57'614.4
2018-Jun-23 21:00N 29°02' W 012°53'814.4
2018-Jun-23 20:29N 29°09' W 012°48'914.5
2018-Jun-23 19:50N 29°17' W 012°42'814.5
2018-Jun-23 19:18N 29°23' W 012°37'414.4
2018-Jun-23 18:59N 29°27' W 012°34'1314.5
2018-Jun-23 18:05N 29°37' W 012°25'214.6
2018-Jun-23 17:57N 29°39' W 012°24'914.5
2018-Jun-23 17:18N 29°47' W 012°18'414.3
2018-Jun-23 17:00N 29°50' W 012°15'  
2018-Jun-19 19:35N 36°32' W 000°50'212.5
2018-Jun-19 19:25N 36°33' W 000°47'512.6
2018-Jun-19 19:00N 36°34' W 000°41'7612.5
2018-Jun-19 12:56N 36°49' E 000°52'  
2018-Jun-15 15:06N 37°44' E 024°16'112.0
2018-Jun-15 14:59N 37°44' E 024°18'712.1
2018-Jun-15 14:26N 37°49' E 024°24'512.7
2018-Jun-15 14:01N 37°52' E 024°29'13012.9
2018-Jun-15 03:56N 39°48' E 025°45'614.6
2018-Jun-15 03:30N 39°53' E 025°48'9311.1
2018-Jun-14 19:09N 40°43' E 027°31'430.9
2018-Jun-14 19:00N 40°45' E 027°36'3768.1
2018-Jun-14 18:27N 40°51' E 028°25'1533.2
2018-Jun-14 18:00N 40°53' E 028°45'  

Dump ship's entire track history